createdAt,value
2023-05-01T00:02:03.590Z,16.12
2023-05-01T00:04:30.166Z,16.06
2023-05-01T00:07:04.594Z,16.15
2023-05-01T00:09:38.361Z,16.21
2023-05-01T00:12:05.639Z,16.12
2023-05-01T00:14:34.979Z,16.08
2023-05-01T00:17:04.158Z,16.20
2023-05-01T00:19:30.760Z,16.16
2023-05-01T00:21:57.278Z,16.07
2023-05-01T00:24:27.122Z,15.96
2023-05-01T00:26:56.896Z,15.96
2023-05-01T00:29:23.468Z,16.04
2023-05-01T00:31:52.944Z,15.99
2023-05-01T00:34:32.527Z,15.95
2023-05-01T00:36:59.361Z,16.01
2023-05-01T00:39:25.906Z,15.99
2023-05-01T00:41:52.457Z,15.92
2023-05-01T00:44:19.103Z,16.00
2023-05-01T00:46:45.705Z,15.88
2023-05-01T00:49:19.294Z,15.79
2023-05-01T00:51:49.639Z,15.86
2023-05-01T00:54:16.225Z,15.98
2023-05-01T00:56:43.151Z,15.99
2023-05-01T00:59:10.983Z,15.96
2023-05-01T01:01:37.599Z,15.95
2023-05-01T01:04:09.358Z,15.95
2023-05-01T01:06:54.868Z,16.05
2023-05-01T01:09:53.223Z,15.78
2023-05-01T01:12:27.808Z,15.88
2023-05-01T01:15:04.358Z,15.70
2023-05-01T01:17:31.869Z,15.64
2023-05-01T01:20:22.827Z,15.73
2023-05-01T01:23:12.796Z,15.84
2023-05-01T01:26:00.063Z,15.85
2023-05-01T01:28:39.410Z,15.79
2023-05-01T01:31:49.771Z,15.82
2023-05-01T01:34:24.529Z,15.86
2023-05-01T01:37:03.025Z,15.79
2023-05-01T01:39:41.437Z,15.82
2023-05-01T01:42:16.160Z,15.85
2023-05-01T01:44:54.785Z,15.71
2023-05-01T01:47:33.384Z,15.64
2023-05-01T01:50:14.795Z,15.79
2023-05-01T01:52:51.464Z,15.69
2023-05-01T01:55:27.168Z,15.72
2023-05-01T01:58:02.732Z,15.58
2023-05-01T02:00:38.293Z,15.62
2023-05-01T02:03:06.167Z,15.57
2023-05-01T02:05:33.223Z,15.67
2023-05-01T02:08:00.563Z,15.63
2023-05-01T02:10:27.880Z,15.68
2023-05-01T02:12:55.024Z,15.60
2023-05-01T02:15:22.422Z,15.76
2023-05-01T02:17:50.399Z,15.62
2023-05-01T02:20:17.346Z,15.66
2023-05-01T02:22:47.555Z,15.67
2023-05-01T02:25:14.436Z,15.68
2023-05-01T02:27:48.110Z,15.71
2023-05-01T02:30:14.840Z,15.65
2023-05-01T02:32:45.287Z,15.79
2023-05-01T02:35:11.859Z,15.66
2023-05-01T02:37:40.367Z,15.66
2023-05-01T02:40:07.204Z,15.63
2023-05-01T02:42:34.421Z,15.59
2023-05-01T02:45:08.467Z,15.66
2023-05-01T02:47:37.478Z,15.59
2023-05-01T02:50:04.713Z,15.47
2023-05-01T02:52:31.358Z,15.50
2023-05-01T02:54:58.500Z,15.62
2023-05-01T02:57:25.211Z,15.60
2023-05-01T02:59:51.710Z,15.66
2023-05-01T03:02:18.477Z,15.64
2023-05-01T03:04:45.049Z,15.59
2023-05-01T03:07:11.686Z,15.54
2023-05-01T03:09:38.239Z,15.55
2023-05-01T03:12:04.921Z,15.61
2023-05-01T03:14:31.532Z,15.62
2023-05-01T03:16:58.093Z,15.49
2023-05-01T03:19:24.785Z,15.41
2023-05-01T03:21:51.420Z,15.40
2023-05-01T03:24:18.102Z,15.52
2023-05-01T03:26:44.702Z,15.60
2023-05-01T03:29:13.695Z,15.66
2023-05-01T03:31:40.329Z,15.57
2023-05-01T03:34:07.003Z,15.58
2023-05-01T03:36:33.576Z,15.51
2023-05-01T03:39:00.136Z,15.67
2023-05-01T03:41:26.683Z,15.48
2023-05-01T03:43:53.170Z,15.46
2023-05-01T03:46:19.855Z,15.46
2023-05-01T03:48:48.843Z,15.54
2023-05-01T03:51:15.401Z,15.51
2023-05-01T03:53:41.893Z,15.44
2023-05-01T03:56:08.678Z,15.39
2023-05-01T03:58:35.199Z,15.38
2023-05-01T04:01:01.694Z,15.23
2023-05-01T04:03:28.579Z,15.08
2023-05-01T04:05:55.368Z,14.94
2023-05-01T04:08:21.924Z,14.89
2023-05-01T04:10:48.464Z,14.82
2023-05-01T04:13:14.980Z,14.86
2023-05-01T04:15:44.391Z,14.74
2023-05-01T04:18:11.066Z,14.69
2023-05-01T04:20:39.955Z,14.66
2023-05-01T04:23:06.509Z,14.68
2023-05-01T04:25:33.040Z,14.64
2023-05-01T04:27:59.677Z,14.68
2023-05-01T04:30:26.185Z,14.57
2023-05-01T04:32:52.740Z,14.60
2023-05-01T04:35:19.296Z,14.56
2023-05-01T04:37:45.805Z,14.50
2023-05-01T04:40:12.480Z,14.53
2023-05-01T04:42:38.976Z,14.70
2023-05-01T04:45:05.759Z,14.60
2023-05-01T04:47:32.354Z,14.59
2023-05-01T04:49:58.868Z,14.54
2023-05-01T04:52:25.698Z,14.61
2023-05-01T04:54:54.237Z,14.58
2023-05-01T04:57:20.804Z,14.69
2023-05-01T04:59:47.347Z,14.66
2023-05-01T05:02:13.916Z,14.59
2023-05-01T05:04:40.434Z,14.80
2023-05-01T05:07:07.084Z,14.66
2023-05-01T05:09:33.682Z,14.89
2023-05-01T05:12:00.220Z,14.68
2023-05-01T05:14:28.276Z,14.66
2023-05-01T05:16:54.842Z,14.65
2023-05-01T05:19:21.362Z,14.77
2023-05-01T05:21:47.906Z,14.64
2023-05-01T05:24:16.529Z,14.60
2023-05-01T05:26:43.047Z,14.66
2023-05-01T05:29:09.624Z,14.64
2023-05-01T05:31:36.184Z,14.64
2023-05-01T05:34:02.744Z,14.62
2023-05-01T05:36:29.557Z,14.58
2023-05-01T05:38:57.353Z,14.55
2023-05-01T05:41:23.890Z,14.62
2023-05-01T05:43:50.452Z,14.71
2023-05-01T05:46:17.104Z,14.63
2023-05-01T05:48:43.708Z,14.75
2023-05-01T05:51:10.182Z,14.81
2023-05-01T05:53:36.776Z,14.69
2023-05-01T05:56:03.409Z,14.71
2023-05-01T05:58:29.903Z,14.69
2023-05-01T06:00:56.551Z,14.77
2023-05-01T06:03:23.246Z,14.81
2023-05-01T06:05:50.099Z,14.80
2023-05-01T06:08:16.671Z,14.74
2023-05-01T06:10:43.877Z,14.90
2023-05-01T06:13:13.475Z,14.93
2023-05-01T06:15:41.102Z,14.92
2023-05-01T06:18:08.117Z,15.02
2023-05-01T06:20:34.771Z,15.02
2023-05-01T06:23:01.374Z,15.15
2023-05-01T06:25:27.898Z,15.28
2023-05-01T06:27:54.444Z,15.34
2023-05-01T06:30:21.093Z,15.33
2023-05-01T06:32:47.792Z,15.44
2023-05-01T06:35:14.618Z,15.56
2023-05-01T06:37:41.192Z,15.62
2023-05-01T06:40:10.852Z,15.87
2023-05-01T06:42:37.879Z,15.76
2023-05-01T06:45:04.873Z,15.76
2023-05-01T06:47:31.469Z,15.82
2023-05-01T06:49:58.242Z,15.94
2023-05-01T06:52:25.246Z,15.97
2023-05-01T06:54:51.793Z,15.93
2023-05-01T06:57:21.494Z,16.10
2023-05-01T06:59:48.243Z,16.13
2023-05-01T07:02:19.060Z,16.20
2023-05-01T07:04:45.637Z,16.44
2023-05-01T07:07:12.296Z,16.52
2023-05-01T07:09:38.906Z,16.49
2023-05-01T07:12:06.228Z,16.57
2023-05-01T07:14:34.699Z,16.60
2023-05-01T07:17:01.586Z,16.42
2023-05-01T07:19:28.229Z,16.62
2023-05-01T07:21:54.779Z,16.49
2023-05-01T07:24:21.262Z,16.41
2023-05-01T07:26:47.807Z,16.64
2023-05-01T07:29:14.594Z,16.72
2023-05-01T07:31:41.094Z,16.84
2023-05-01T07:34:07.683Z,16.88
2023-05-01T07:36:34.212Z,16.85
2023-05-01T07:39:00.739Z,16.79
2023-05-01T07:41:27.323Z,16.77
2023-05-01T07:43:53.849Z,16.77
2023-05-01T07:46:20.395Z,16.91
2023-05-01T07:48:46.972Z,16.83
2023-05-01T07:51:13.521Z,16.94
2023-05-01T07:53:40.051Z,16.83
2023-05-01T07:56:07.761Z,16.85
2023-05-01T07:58:34.580Z,16.97
2023-05-01T08:01:01.244Z,17.15
2023-05-01T08:03:28.628Z,17.13
2023-05-01T08:05:55.409Z,17.17
2023-05-01T08:08:25.926Z,17.17
2023-05-01T08:10:52.612Z,17.41
2023-05-01T08:13:19.222Z,17.26
2023-05-01T08:15:47.166Z,17.25
2023-05-01T08:18:13.853Z,17.27
2023-05-01T08:20:40.418Z,17.20
2023-05-01T08:23:06.910Z,17.31
2023-05-01T08:25:33.445Z,17.26
2023-05-01T08:28:00.567Z,17.40
2023-05-01T08:30:30.113Z,17.59
2023-05-01T08:32:56.729Z,17.45
2023-05-01T08:35:23.343Z,17.52
2023-05-01T08:37:49.898Z,17.53
2023-05-01T08:40:16.584Z,17.56
2023-05-01T08:42:43.373Z,17.55
2023-05-01T08:45:10.524Z,17.61
2023-05-01T08:47:40.170Z,17.72
2023-05-01T08:50:10.032Z,17.51
2023-05-01T08:52:42.501Z,17.52
2023-05-01T08:55:15.347Z,17.36
2023-05-01T08:57:45.625Z,17.49
2023-05-01T09:00:15.667Z,17.49
2023-05-01T09:02:43.382Z,17.35
2023-05-01T09:05:10.182Z,17.24
2023-05-01T09:07:36.967Z,17.16
2023-05-01T09:10:03.834Z,17.26
2023-05-01T09:12:31.308Z,17.23
2023-05-01T09:14:57.872Z,17.43
2023-05-01T09:17:24.565Z,17.21
2023-05-01T09:19:51.506Z,17.08
2023-05-01T09:22:18.274Z,17.20
2023-05-01T09:24:45.171Z,17.34
2023-05-01T09:27:12.589Z,17.31
2023-05-01T09:29:46.288Z,17.38
2023-05-01T09:32:14.220Z,17.63
2023-05-01T09:34:40.995Z,17.57
2023-05-01T09:37:07.575Z,17.51
2023-05-01T09:39:34.096Z,17.57
2023-05-01T09:42:00.635Z,17.69
2023-05-01T09:44:27.500Z,17.57
2023-05-01T09:47:02.849Z,17.69
2023-05-01T09:50:00.394Z,17.81
2023-05-01T09:52:33.270Z,17.74
2023-05-01T09:55:16.153Z,17.81
2023-05-01T09:57:44.680Z,17.70
2023-05-01T10:00:12.036Z,17.77
2023-05-01T10:02:39.488Z,17.84
2023-05-01T10:05:11.009Z,17.72
2023-05-01T10:07:39.213Z,17.81
2023-05-01T10:10:26.867Z,17.74
2023-05-01T10:12:54.431Z,17.70
2023-05-01T10:15:26.077Z,17.73
2023-05-01T10:17:53.916Z,17.92
2023-05-01T10:20:23.439Z,17.73
2023-05-01T10:22:50.033Z,17.87
2023-05-01T10:25:17.743Z,17.77
2023-05-01T10:27:44.387Z,17.89
2023-05-01T10:30:11.236Z,17.78
2023-05-01T10:32:38.859Z,17.71
2023-05-01T10:35:11.664Z,17.69
2023-05-01T10:37:44.660Z,17.79
2023-05-01T10:40:30.182Z,18.11
2023-05-01T10:43:16.098Z,18.08
2023-05-01T10:45:45.986Z,17.81
2023-05-01T10:48:12.684Z,17.86
2023-05-01T10:50:57.804Z,17.98
2023-05-01T10:53:27.476Z,17.84
2023-05-01T10:55:54.062Z,17.85
2023-05-01T10:58:50.234Z,17.72
2023-05-01T11:01:33.275Z,17.82
2023-05-01T11:04:01.126Z,17.82
2023-05-01T11:06:31.681Z,17.64
2023-05-01T11:08:58.400Z,17.60
2023-05-01T11:11:24.946Z,17.80
2023-05-01T11:14:10.500Z,17.74
2023-05-01T11:16:38.789Z,17.67
2023-05-01T11:19:05.407Z,17.73
2023-05-01T11:21:32.528Z,17.77
2023-05-01T11:24:01.860Z,17.72
2023-05-01T11:26:31.219Z,17.68
2023-05-01T11:28:59.770Z,17.75
2023-05-01T11:31:26.865Z,17.58
2023-05-01T11:33:56.015Z,17.66
2023-05-01T11:36:25.372Z,17.73
2023-05-01T11:38:52.524Z,17.96
2023-05-01T11:41:22.382Z,17.76
2023-05-01T11:43:49.689Z,17.67
2023-05-01T11:46:23.361Z,17.46
2023-05-01T11:48:52.783Z,17.63
2023-05-01T11:51:19.533Z,17.53
2023-05-01T11:53:58.050Z,17.53
2023-05-01T11:56:27.004Z,17.50
2023-05-01T11:58:54.634Z,17.46
2023-05-01T12:01:24.749Z,17.61
2023-05-01T12:03:51.460Z,17.66
2023-05-01T12:06:18.082Z,17.65
2023-05-01T12:08:47.578Z,17.73
2023-05-01T12:11:14.328Z,17.83
2023-05-01T12:13:41.384Z,17.98
2023-05-01T12:16:08.400Z,17.87
2023-05-01T12:18:35.103Z,17.92
2023-05-01T12:21:01.626Z,17.94
2023-05-01T12:23:35.824Z,17.91
2023-05-01T12:26:15.550Z,17.99
2023-05-01T12:29:03.985Z,18.15
2023-05-01T12:31:31.269Z,18.42
2023-05-01T12:34:02.391Z,18.18
2023-05-01T12:36:30.232Z,18.25
2023-05-01T12:39:15.266Z,18.19
2023-05-01T12:41:53.952Z,18.13
2023-05-01T12:44:21.303Z,18.13
2023-05-01T12:46:54.147Z,18.16
2023-05-01T12:49:24.846Z,18.32
2023-05-01T12:51:54.483Z,18.10
2023-05-01T12:54:31.092Z,18.06
2023-05-01T12:57:11.366Z,18.07
2023-05-01T12:59:39.074Z,17.99
2023-05-01T13:02:10.558Z,18.06
2023-05-01T13:04:37.497Z,17.92
2023-05-01T13:07:11.540Z,17.84
2023-05-01T13:09:38.066Z,18.10
2023-05-01T13:12:05.309Z,17.91
2023-05-01T13:14:38.542Z,17.98
2023-05-01T13:17:10.419Z,17.83
2023-05-01T13:19:37.290Z,17.83
2023-05-01T13:22:03.830Z,17.74
2023-05-01T13:24:42.336Z,17.82
2023-05-01T13:27:12.790Z,17.62
2023-05-01T13:29:40.837Z,17.79
2023-05-01T13:32:10.202Z,17.69
2023-05-01T13:34:36.832Z,17.80
2023-05-01T13:37:03.462Z,17.45
2023-05-01T13:39:30.094Z,17.63
2023-05-01T13:41:56.731Z,17.51
2023-05-01T13:44:23.316Z,17.54
2023-05-01T13:46:50.122Z,17.66
2023-05-01T13:49:20.655Z,17.54
2023-05-01T13:51:47.260Z,17.27
2023-05-01T13:54:13.924Z,17.22
2023-05-01T13:56:41.707Z,17.50
2023-05-01T13:59:09.026Z,17.30
2023-05-01T14:01:42.041Z,17.10
2023-05-01T14:04:09.201Z,17.41
2023-05-01T14:06:36.615Z,17.24
2023-05-01T14:09:03.934Z,17.17
2023-05-01T14:11:30.558Z,16.99
2023-05-01T14:13:58.956Z,16.98
2023-05-01T14:16:28.675Z,17.01
2023-05-01T14:18:55.704Z,17.11
2023-05-01T14:21:23.334Z,16.98
2023-05-01T14:23:54.633Z,16.90
2023-05-01T14:26:22.454Z,16.88
2023-05-01T14:28:49.029Z,17.02
2023-05-01T14:31:17.344Z,16.81
2023-05-01T14:33:44.121Z,16.94
2023-05-01T14:36:11.998Z,16.76
2023-05-01T14:38:39.394Z,16.56
2023-05-01T14:41:06.021Z,16.52
2023-05-01T14:43:36.769Z,16.39
2023-05-01T14:46:06.297Z,16.65
2023-05-01T14:48:36.418Z,16.39
2023-05-01T14:51:09.981Z,16.20
2023-05-01T14:53:38.343Z,16.27
2023-05-01T14:56:05.040Z,16.15
2023-05-01T14:58:31.537Z,16.07
2023-05-01T15:00:58.021Z,16.06
2023-05-01T15:03:24.624Z,16.33
2023-05-01T15:05:51.249Z,16.39
2023-05-01T15:08:19.510Z,16.15
2023-05-01T15:10:48.875Z,16.06
2023-05-01T15:13:15.571Z,15.97
2023-05-01T15:15:42.181Z,15.92
2023-05-01T15:18:08.711Z,16.10
2023-05-01T15:20:35.268Z,15.92
2023-05-01T15:23:04.205Z,15.97
2023-05-01T15:25:30.745Z,15.72
2023-05-01T15:27:57.384Z,15.66
2023-05-01T15:30:23.961Z,15.66
2023-05-01T15:32:50.641Z,15.51
2023-05-01T15:35:17.670Z,15.44
2023-05-01T15:37:44.268Z,15.47
2023-05-01T15:40:18.402Z,15.43
2023-05-01T15:42:53.274Z,15.44
2023-05-01T15:45:20.170Z,15.43
2023-05-01T15:47:46.840Z,15.74
2023-05-01T15:50:18.633Z,15.64
2023-05-01T15:52:45.619Z,15.50
2023-05-01T15:55:12.246Z,15.56
2023-05-01T15:57:38.792Z,15.53
2023-05-01T16:00:05.697Z,15.37
2023-05-01T16:02:41.166Z,15.37
2023-05-01T16:05:09.334Z,15.70
2023-05-01T16:07:36.099Z,15.66
2023-05-01T16:10:03.087Z,15.36
2023-05-01T16:12:30.360Z,15.58
2023-05-01T16:14:56.943Z,15.29
2023-05-01T16:17:23.566Z,15.26
2023-05-01T16:19:50.095Z,15.15
2023-05-01T16:22:17.008Z,14.98
2023-05-01T16:24:46.135Z,15.24
2023-05-01T16:27:12.798Z,15.38
2023-05-01T16:29:39.417Z,15.17
2023-05-01T16:32:06.115Z,15.46
2023-05-01T16:34:32.748Z,15.43
2023-05-01T16:36:59.340Z,15.15
2023-05-01T16:39:25.956Z,15.03
2023-05-01T16:41:53.883Z,15.24
2023-05-01T16:44:28.821Z,15.21
2023-05-01T16:46:56.277Z,15.04
2023-05-01T16:49:23.764Z,15.15
2023-05-01T16:51:50.408Z,15.15
2023-05-01T16:54:17.201Z,15.00
2023-05-01T16:56:43.785Z,14.90
2023-05-01T16:59:10.297Z,14.82
2023-05-01T17:01:44.968Z,15.13
2023-05-01T17:04:21.989Z,14.75
2023-05-01T17:06:51.847Z,14.77
2023-05-01T17:09:18.566Z,14.71
2023-05-01T17:11:47.224Z,14.78
2023-05-01T17:14:13.761Z,14.57
2023-05-01T17:16:40.360Z,14.65
2023-05-01T17:19:07.048Z,14.86
2023-05-01T17:21:33.558Z,14.78
2023-05-01T17:24:00.116Z,14.84
2023-05-01T17:26:26.729Z,14.59
2023-05-01T17:28:53.251Z,14.75
2023-05-01T17:31:21.193Z,14.58
2023-05-01T17:33:57.042Z,14.55
2023-05-01T17:36:36.757Z,14.53
2023-05-01T17:39:15.868Z,14.57
2023-05-01T17:41:56.680Z,14.59
2023-05-01T17:44:23.552Z,14.55
2023-05-01T17:46:50.545Z,14.40
2023-05-01T17:49:17.126Z,14.24
2023-05-01T17:51:43.594Z,14.47
2023-05-01T17:54:10.066Z,14.46
2023-05-01T17:56:36.813Z,14.39
2023-05-01T17:59:06.461Z,14.48
2023-05-01T18:01:33.131Z,14.32
2023-05-01T18:03:59.802Z,14.12
2023-05-01T18:06:26.449Z,14.15
2023-05-01T18:08:56.220Z,14.13
2023-05-01T18:11:22.782Z,14.16
2023-05-01T18:13:49.359Z,14.08
2023-05-01T18:16:16.035Z,14.08
2023-05-01T18:18:42.710Z,14.13
2023-05-01T18:21:11.532Z,13.90
2023-05-01T18:23:38.724Z,13.82
2023-05-01T18:26:07.151Z,14.02
2023-05-01T18:28:34.707Z,13.64
2023-05-01T18:31:01.249Z,13.74
2023-05-01T18:33:37.083Z,13.85
2023-05-01T18:36:11.574Z,13.73
2023-05-01T18:38:46.440Z,13.73
2023-05-01T18:41:13.929Z,13.96
2023-05-01T18:43:40.644Z,13.93
2023-05-01T18:46:10.368Z,14.16
2023-05-01T18:48:37.621Z,13.90
2023-05-01T18:51:09.002Z,13.76
2023-05-01T18:53:36.134Z,13.70
2023-05-01T18:56:02.696Z,13.91
2023-05-01T18:58:29.214Z,13.92
2023-05-01T19:00:55.792Z,13.91
2023-05-01T19:03:30.571Z,13.71
2023-05-01T19:05:57.340Z,13.74
2023-05-01T19:08:23.942Z,13.62
2023-05-01T19:10:50.444Z,13.68
2023-05-01T19:13:17.068Z,13.77
2023-05-01T19:15:44.026Z,13.65
2023-05-01T19:18:20.086Z,13.67
2023-05-01T19:20:46.723Z,13.53
2023-05-01T19:23:13.319Z,13.64
2023-05-01T19:25:39.857Z,13.56
2023-05-01T19:28:06.418Z,13.56
2023-05-01T19:30:32.955Z,13.52
2023-05-01T19:32:59.557Z,13.51
2023-05-01T19:35:26.464Z,13.60
2023-05-01T19:37:56.843Z,13.60
2023-05-01T19:40:24.598Z,13.46
2023-05-01T19:42:51.514Z,13.49
2023-05-01T19:45:18.183Z,13.54
2023-05-01T19:47:45.719Z,13.55
2023-05-01T19:50:12.418Z,13.59
2023-05-01T19:52:39.032Z,13.58
2023-05-01T19:55:05.735Z,13.68
2023-05-01T19:57:32.592Z,13.50
2023-05-01T19:59:59.470Z,13.45
2023-05-01T20:02:26.310Z,13.52
2023-05-01T20:04:53.051Z,13.60
2023-05-01T20:07:19.812Z,13.61
2023-05-01T20:09:46.480Z,13.57
2023-05-01T20:12:13.123Z,13.51
2023-05-01T20:14:39.801Z,13.72
2023-05-01T20:17:06.459Z,13.81
2023-05-01T20:19:33.439Z,13.88
2023-05-01T20:21:59.983Z,13.71
2023-05-01T20:24:26.526Z,13.56
2023-05-01T20:26:53.024Z,13.42
2023-05-01T20:29:20.732Z,13.55
2023-05-01T20:31:48.667Z,13.65
2023-05-01T20:34:19.711Z,13.71
2023-05-01T20:36:46.381Z,13.64
2023-05-01T20:39:18.362Z,13.49
2023-05-01T20:41:45.046Z,13.74
2023-05-01T20:44:21.645Z,13.56
2023-05-01T20:46:56.197Z,13.56
2023-05-01T20:49:22.989Z,13.52
2023-05-01T20:51:49.475Z,13.53
2023-05-01T20:54:16.063Z,13.61
2023-05-01T20:56:42.562Z,13.54
2023-05-01T20:59:09.286Z,13.60
2023-05-01T21:01:42.265Z,13.34
2023-05-01T21:04:09.070Z,13.42
2023-05-01T21:06:35.772Z,13.49
2023-05-01T21:09:05.722Z,13.38
2023-05-01T21:11:34.910Z,13.32
2023-05-01T21:14:01.485Z,13.44
2023-05-01T21:16:35.711Z,13.20
2023-05-01T21:19:11.527Z,13.25
2023-05-01T21:21:46.858Z,13.26
2023-05-01T21:24:19.140Z,13.32
2023-05-01T21:26:45.790Z,13.24
2023-05-01T21:29:12.482Z,13.39
2023-05-01T21:31:39.127Z,13.34
2023-05-01T21:34:06.323Z,13.29
2023-05-01T21:36:32.982Z,13.08
2023-05-01T21:39:02.408Z,13.18
2023-05-01T21:41:28.970Z,13.36
2023-05-01T21:43:55.468Z,13.24
2023-05-01T21:46:22.020Z,13.15
2023-05-01T21:48:51.472Z,13.29
2023-05-01T21:51:18.157Z,13.16
2023-05-01T21:53:44.637Z,13.20
2023-05-01T21:56:11.344Z,13.29
2023-05-01T21:58:40.887Z,13.13
2023-05-01T22:01:07.519Z,13.41
2023-05-01T22:03:34.581Z,13.35
2023-05-01T22:06:01.236Z,13.20
2023-05-01T22:08:28.070Z,13.20
2023-05-01T22:10:54.568Z,13.26
2023-05-01T22:13:21.089Z,13.43
2023-05-01T22:15:47.662Z,13.22
2023-05-01T22:18:14.490Z,13.20
2023-05-01T22:20:41.014Z,13.26
2023-05-01T22:23:07.499Z,13.19
2023-05-01T22:25:40.795Z,13.22
2023-05-01T22:28:17.705Z,13.27
2023-05-01T22:30:45.627Z,13.15
2023-05-01T22:33:21.436Z,13.26
2023-05-01T22:35:48.072Z,13.34
2023-05-01T22:38:14.692Z,13.16
2023-05-01T22:40:41.251Z,13.23
2023-05-01T22:43:10.202Z,13.31
2023-05-01T22:45:36.753Z,13.20
2023-05-01T22:48:03.350Z,13.34
2023-05-01T22:50:29.882Z,13.35
2023-05-01T22:52:56.570Z,13.50
2023-05-01T22:55:28.476Z,13.35
2023-05-01T22:57:55.032Z,13.44
2023-05-01T23:00:24.671Z,13.49
2023-05-01T23:02:51.489Z,13.45
2023-05-01T23:05:18.244Z,13.51
2023-05-01T23:07:52.049Z,13.38
2023-05-01T23:10:18.862Z,13.48
2023-05-01T23:12:45.482Z,13.45
2023-05-01T23:15:13.186Z,13.43
2023-05-01T23:17:42.568Z,13.54
2023-05-01T23:20:12.758Z,13.70
2023-05-01T23:22:39.631Z,13.71
2023-05-01T23:25:14.045Z,13.63
2023-05-01T23:27:41.224Z,13.57
2023-05-01T23:30:08.301Z,13.54
2023-05-01T23:32:35.238Z,13.70
2023-05-01T23:35:15.079Z,13.51
2023-05-01T23:37:41.810Z,13.58
2023-05-01T23:40:08.590Z,13.59
2023-05-01T23:42:35.953Z,13.51
2023-05-01T23:45:02.750Z,13.56
2023-05-01T23:47:29.703Z,13.54
2023-05-01T23:49:56.578Z,13.74
2023-05-01T23:52:23.166Z,13.65
2023-05-01T23:55:00.554Z,13.58
2023-05-01T23:57:28.181Z,13.48
2023-05-01T23:59:54.687Z,13.72
